< < Back
Terminal Aerodrome Forecast


Current Version              Previous Versions:   1  2  3  4  5  6  7  8  9  

Terminal Aerodrome Forecast

787
FTUS42 KGSP 031045 AAD
TAFAVL
TAF AMD
KAVL 031045Z 0311/0406 VRB05KT P6SM -RA BKN004
      TEMPO 0311/0312 SCT004 BKN080
     FM031200 33009G16KT P6SM VCSH BKN045
      TEMPO 0318/0320 4SM -TSRA OVC025CB
     FM040000 34015KT P6SM OVC050=

Latest METAR

003
SAUS70 KWBC 031400 RRE
MTRAVL
METAR KAVL 031354Z 36005KT 10SM SCT009 BKN016 17/14 A2990 RMK AO2 SLP106
T01720139


USA.gov is the U.S. government's official web portal to all federal, state and local government web resources and services.